Bei Facebook empfehlenBei Twitter postenGoogle plusPinterest

Das Wetter im Erzgebirge am 07.11.2016

Wetter und Klima am 07.11.2016 Holzhau im Erzgebirge (630m ü.NN)
Letzte gemessene Temperatur und Uhrzeit der Messung23:45:00 Uhr-0.10 °C
Temperatur (Maximum / Höchstwert) und Uhrzeit der Messung16:00:00 Uhr0.90 °C
Temperatur (Minimum / Tiefstwert) und Uhrzeit der Messung00:00:00-2.90 °C
Errechneter Absolutwert der Temperaturschwankungen zwischen Tmin und Tmax des Tages3.80 K
Errechnete Tagesmitteltemperatur0.12917 °C
Gesamt - Niederschlag des Tages (in flüssiger Form)1.04 Liter / m²
Luftdruck (Maximum / Höchstwert) und Zeitpunkt der Messung22:30:00 Uhr1004.80 hPa
Luftdruck (Minimum / Tiefstwert) und Zeitpunkt der Messung00:00:00 Uhr997.50 hPa
Errechneter Absolutwert der Luftdruckschwankungen des Tages7.30 hPa
Höchste gemessene Windgeschwindigkeit und Uhrzeit der Messung23:45:00 Uhr0.00 km/h
Errechnete Windhäufigkeit in Relation zu den Messwerten des Tages0.00000 %
Niedrigste Windkühle (Windchill) und Zeitpunkt der Messung00:00:00 Uhr-2.90 °C
Taupunkt (Maximum / Höchstwert) und Uhrzeit der Messung16:00:00 Uhr0.20 °C
Taupunkt (Minimum / Tiefstwert) und Uhrzeit der Messung00:00:00-4.00 °C
Anzahl der automatisch eingelesenen Messwerte 96

Detaillierte Wetter- und Klima- Messwerte für den 07.11.2016 in Holzhau im Erzgebirge (630m ü.NN)
ZeitTemperaturLuftdruckRel. LuftfeuchteWindWindrichtungWindchillTaupunktNiederschlag l/m²
23:45:00-0.10 °C1004.50 hPa96.00 %-0.70 °C1.04
23:30:000.10 °C1004.40 hPa96.00 %-0.50 °C1.04
23:15:000.10 °C1004.50 hPa96.00 %-0.50 °C1.04
23:00:000.10 °C1004.60 hPa96.00 %-0.50 °C1.04
22:45:000.10 °C1004.60 hPa96.00 %-0.50 °C1.04
22:30:000.10 °C1004.80 hPa96.00 %-0.50 °C1.04
22:15:000.00 °C1004.60 hPa96.00 %-0.60 °C1.04
22:00:000.10 °C1004.50 hPa96.00 %-0.50 °C1.04
21:45:000.10 °C1004.30 hPa96.00 %-0.50 °C1.04
21:30:000.10 °C1004.30 hPa96.00 %-0.50 °C1.04
21:15:000.00 °C1004.20 hPa96.00 %-0.60 °C1.04
21:00:00-0.10 °C1004.20 hPa96.00 %-0.70 °C1.04
20:45:00-0.10 °C1004.10 hPa96.00 %-0.70 °C1.04
20:30:00-0.10 °C1004.00 hPa96.00 %-0.70 °C1.04
20:15:00-0.10 °C1003.90 hPa95.00 %-0.90 °C1.04
20:00:000.00 °C1003.60 hPa95.00 %-0.80 °C1.04
19:45:000.10 °C1003.60 hPa95.00 %-0.60 °C1.04
19:30:000.10 °C1003.50 hPa95.00 %-0.60 °C1.04
19:15:000.10 °C1003.50 hPa95.00 %-0.60 °C1.04
19:00:000.10 °C1003.30 hPa95.00 %-0.60 °C1.04
18:45:000.10 °C1003.10 hPa95.00 %-0.60 °C1.04
18:30:000.20 °C1003.20 hPa95.00 %-0.50 °C1.04
18:15:000.30 °C1002.80 hPa95.00 %-0.40 °C1.04
18:00:000.40 °C1002.70 hPa95.00 %-0.30 °C1.04
17:45:000.40 °C1002.80 hPa95.00 %-0.30 °C1.04
17:30:000.50 °C1002.60 hPa95.00 %-0.20 °C1.04
17:15:000.70 °C1002.60 hPa95.00 %0.00 °C1.04
17:00:000.80 °C1002.40 hPa95.00 %0.10 °C1.04
16:45:000.80 °C1002.40 hPa95.00 %0.10 °C1.04
16:30:000.80 °C1002.40 hPa95.00 %0.10 °C1.04
16:15:000.80 °C1002.20 hPa95.00 %0.10 °C1.04
16:00:000.90 °C1002.10 hPa95.00 %0.20 °C1.04
15:45:000.90 °C1001.90 hPa95.00 %0.20 °C1.04
15:30:000.90 °C1001.70 hPa95.00 %0.20 °C1.04
15:15:000.80 °C1001.80 hPa95.00 %0.10 °C1.04
15:00:000.80 °C1001.60 hPa95.00 %0.10 °C0.52
14:45:000.80 °C1001.50 hPa95.00 %0.10 °C0.52
14:30:000.80 °C1001.50 hPa95.00 %0.10 °C0.52
14:15:000.80 °C1001.40 hPa95.00 %0.10 °C0.52
14:00:000.80 °C1001.70 hPa95.00 %0.10 °C0.52
13:45:000.90 °C1001.50 hPa95.00 %0.20 °C 
13:30:000.80 °C1001.30 hPa95.00 %0.10 °C 
13:15:000.80 °C1001.20 hPa95.00 %0.10 °C 
13:00:000.80 °C1001.10 hPa95.00 %0.10 °C 
12:45:000.80 °C1001.10 hPa95.00 %0.10 °C 
12:30:000.80 °C1001.00 hPa95.00 %0.10 °C 
12:15:000.50 °C1000.90 hPa95.00 %-0.20 °C 
12:00:000.50 °C1000.90 hPa94.00 %-0.40 °C 
11:45:000.50 °C1000.80 hPa94.00 %-0.40 °C 
11:30:000.80 °C1000.70 hPa95.00 %0.10 °C 
11:15:000.90 °C1000.50 hPa95.00 %0.20 °C 
11:00:000.90 °C1000.30 hPa95.00 %0.20 °C 
10:45:000.90 °C1000.20 hPa95.00 %0.20 °C 
10:30:000.80 °C1000.10 hPa95.00 %0.10 °C 
10:15:000.70 °C1000.00 hPa95.00 %0.00 °C 
10:00:000.60 °C999.90 hPa95.00 %-0.10 °C 
09:45:000.40 °C999.90 hPa95.00 %-0.30 °C 
09:30:000.40 °C999.80 hPa95.00 %-0.30 °C 
09:15:000.30 °C999.80 hPa95.00 %-0.40 °C 
09:00:000.30 °C999.50 hPa95.00 %-0.40 °C 
08:45:000.20 °C999.30 hPa95.00 %-0.50 °C 
08:30:000.20 °C999.10 hPa95.00 %-0.50 °C 
08:15:000.20 °C999.10 hPa95.00 %-0.50 °C 
08:00:000.10 °C998.90 hPa95.00 %-0.60 °C 
07:45:000.20 °C998.70 hPa95.00 %-0.50 °C 
07:30:000.10 °C998.80 hPa95.00 %-0.60 °C 
07:15:000.10 °C998.70 hPa95.00 %-0.60 °C 
07:00:000.10 °C998.70 hPa95.00 %-0.60 °C 
06:45:000.10 °C998.60 hPa95.00 %-0.60 °C 
06:30:000.10 °C998.70 hPa95.00 %-0.60 °C 
06:15:000.10 °C998.70 hPa95.00 %-0.60 °C 
06:00:000.10 °C998.60 hPa95.00 %-0.60 °C 
05:45:000.30 °C998.50 hPa95.00 %-0.40 °C 
05:30:000.40 °C998.50 hPa94.00 %-0.50 °C 
05:15:000.40 °C998.50 hPa95.00 %-0.30 °C 
05:00:000.40 °C998.50 hPa95.00 %-0.30 °C 
04:45:000.30 °C998.50 hPa94.00 %-0.50 °C 
04:30:000.30 °C998.60 hPa94.00 %-0.50 °C 
04:15:000.20 °C998.40 hPa94.00 %-0.60 °C 
04:00:000.20 °C998.60 hPa94.00 %-0.60 °C 
03:45:000.10 °C998.40 hPa94.00 %-0.70 °C 
03:30:000.10 °C998.50 hPa94.00 %-0.70 °C 
03:15:000.10 °C998.50 hPa94.00 %-0.70 °C 
03:00:00-0.10 °C998.20 hPa94.00 %-1.00 °C 
02:45:00-0.40 °C998.10 hPa94.00 %-1.30 °C 
02:30:00-0.70 °C998.00 hPa94.00 %-1.60 °C 
02:15:00-0.90 °C997.90 hPa94.00 %-1.80 °C 
02:00:00-1.10 °C997.80 hPa94.00 %-2.00 °C 
01:45:00-1.30 °C997.90 hPa94.00 %-2.20 °C 
01:30:00-1.40 °C997.90 hPa94.00 %-2.30 °C 
01:15:00-1.60 °C997.90 hPa94.00 %-2.50 °C 
01:00:00-1.90 °C998.00 hPa94.00 %-2.80 °C 
00:45:00-2.20 °C997.90 hPa93.00 %-3.30 °C 
00:30:00-2.40 °C997.80 hPa93.00 %-3.50 °C 
00:15:00-2.50 °C997.80 hPa93.00 %-3.60 °C 
00:00:00-2.90 °C997.50 hPa93.00 %-4.00 °C 

Permanenter Link zu dieser Seite: Wetter im Erzgebirge am 07.11.2016
Performance-Info: Die Erstellung der Seite / Statistik(en) / Tabelle(n) erforderte 5 Datenbankserver-Abfrage(n) und dauerte 100 Millisekunden. (Dieser Messwert ist von der Gesamt-Auslastung des Servers abhängig.)
Erzgebirge - Wetter | Erzgebirge - Wetter (Mobilgeräte) | Komplette Klimadatenbank